Airfield :
LOGIN :

Register | Disclaimer

   EN    FR    IT 

 










Legend :    VFR   Marginal VFR   IFR   Intensive IFR   Very Intensive IFR
Visi :
Ceiling :
>= 8 km
>= 3000ft
5 to 8 km
1000 to 3000 ft
1500m to 5 km
500 to 1000 ft
800 to 1500m
200 to 500 ft
< 800m
< 200 ft
Symbols :   Thunderstorms  Fog  Heavy snow  Heavy precipitations  Wind > 20 kt
SIGMETs :     Misc.  Thunderstorms  Icing  Turbulence  Mountain Waves  Volcanic Ashes







- Airport Elevation : 1521 ft
- IATA code : NCY
- Download approach charts


LFLP - Annecy

CURRENT METAR :
  • 211700Z AUTO 28013KT 250V310 9999 SCT054/// OVC074/// ///TCU 14/08 Q1019 TEMPO 3000 SHRA BECMG 18008KT

EXPIRED METARs :
  • 211630Z AUTO 28015G29KT 250V320 9999 BKN062 BKN076 BKN088 15/08 Q1018 TEMPO 3000 SHRA BKN015 SCT030TCU OVC035 BECMG 18008KT
  • 211600Z AUTO 16005KT CAVOK 20/11 Q1017 TEMPO 3000 SHRA BKN015 SCT030TCU OVC035
  • 211530Z AUTO 16006KT 9999 FEW049 SCT076 BKN096 21/10 Q1017 TEMPO 3000 SHRA BKN015 SCT030TCU OVC035
  • 211500Z AUTO 21006KT 180V240 9999 FEW052 SCT072 BKN084 21/10 Q1017 NOSIG
  • 211430Z AUTO 19010KT 170V230 9999 FEW001 BKN110 22/10 Q1017 NOSIG

TAF AMD TAF LFLP
Valid from the 21 at 16:00 until the 22 at 15:00 UTC


211653Z 2116/2215 18008KT 9999 BKN070
BECMG 2116/2117 -RA BKN020 BKN040
TEMPO 2117/2121 3000 SHRA BKN015 SCT030TCU OVC035
PROB30
TEMPO 2117/2121 VRB15G25KT 2000 SHRA BKN015 SCT025CB
BECMG 2202/2204 NSW BKN040
BECMG 2207/2209 SCT020 BKN030
TEMPO 2210/2215 3000 SHRA BKN020TCU
No reported NOTAMs for that airfield.



MET'MAP, your aeronautical weather chart ! - Copyright ORBIFLY December 2007 - Disclaimer

ORBIFLY MET'MAP TEAM :

Programming & Development : Alexandra Zaïnal
Concept & Development : Baudouin d'Aumeries
Co-Development & Prog : Marc-Olivier Méhu
Technical & hardware support : Manuel Goepfert

Contact : metmap@orbifly.com




SOURCES & CREDITS :

   NOAA